sensor_id;sensor_type;location;lat;lon;timestamp;P1;durP1;ratioP1;P2;durP2;ratioP2
5718;SDS011;2884;47.734;9.244;2022-10-22T00:00:06;9.07;;;8.67;;
5718;SDS011;2884;47.734;9.244;2022-10-22T00:02:34;8.27;;;7.87;;
5718;SDS011;2884;47.734;9.244;2022-10-22T00:04:59;8.70;;;8.03;;
5718;SDS011;2884;47.734;9.244;2022-10-22T00:07:25;10.03;;;9.43;;
5718;SDS011;2884;47.734;9.244;2022-10-22T00:09:51;9.13;;;8.67;;
5718;SDS011;2884;47.734;9.244;2022-10-22T00:12:16;8.93;;;8.07;;
5718;SDS011;2884;47.734;9.244;2022-10-22T00:14:42;7.77;;;7.47;;
5718;SDS011;2884;47.734;9.244;2022-10-22T00:17:08;9.10;;;8.63;;
5718;SDS011;2884;47.734;9.244;2022-10-22T00:19:34;8.80;;;8.30;;
5718;SDS011;2884;47.734;9.244;2022-10-22T00:21:59;8.47;;;8.00;;
5718;SDS011;2884;47.734;9.244;2022-10-22T00:24:29;8.50;;;8.00;;
5718;SDS011;2884;47.734;9.244;2022-10-22T00:26:56;10.33;;;9.67;;
5718;SDS011;2884;47.734;9.244;2022-10-22T00:29:21;9.33;;;8.73;;
5718;SDS011;2884;47.734;9.244;2022-10-22T00:31:47;12.57;;;8.57;;
5718;SDS011;2884;47.734;9.244;2022-10-22T00:34:17;9.30;;;8.73;;
5718;SDS011;2884;47.734;9.244;2022-10-22T00:36:44;8.67;;;8.27;;
5718;SDS011;2884;47.734;9.244;2022-10-22T00:39:10;8.03;;;7.63;;
5718;SDS011;2884;47.734;9.244;2022-10-22T00:41:37;7.90;;;7.50;;
5718;SDS011;2884;47.734;9.244;2022-10-22T00:44:04;7.90;;;7.33;;
5718;SDS011;2884;47.734;9.244;2022-10-22T00:46:31;7.83;;;7.33;;
5718;SDS011;2884;47.734;9.244;2022-10-22T00:48:57;8.33;;;8.03;;
5718;SDS011;2884;47.734;9.244;2022-10-22T00:51:27;7.53;;;7.23;;
5718;SDS011;2884;47.734;9.244;2022-10-22T00:53:55;7.83;;;7.50;;
5718;SDS011;2884;47.734;9.244;2022-10-22T00:56:24;7.80;;;7.30;;
5718;SDS011;2884;47.734;9.244;2022-10-22T00:58:51;8.40;;;7.80;;
5718;SDS011;2884;47.734;9.244;2022-10-22T01:01:20;8.60;;;7.90;;
5718;SDS011;2884;47.734;9.244;2022-10-22T01:03:49;9.50;;;9.10;;
5718;SDS011;2884;47.734;9.244;2022-10-22T01:06:18;12.03;;;11.13;;
5718;SDS011;2884;47.734;9.244;2022-10-22T01:09:36;10.93;;;10.33;;
5718;SDS011;2884;47.734;9.244;2022-10-22T01:12:00;10.40;;;9.50;;
5718;SDS011;2884;47.734;9.244;2022-10-22T01:17:17;9.17;;;8.60;;
5718;SDS011;2884;47.734;9.244;2022-10-22T01:22:28;10.13;;;9.73;;
5718;SDS011;2884;47.734;9.244;2022-10-22T01:27:47;9.20;;;8.70;;
5718;SDS011;2884;47.734;9.244;2022-10-22T01:30:20;10.27;;;9.77;;
5718;SDS011;2884;47.734;9.244;2022-10-22T01:32:50;10.80;;;10.20;;
5718;SDS011;2884;47.734;9.244;2022-10-22T01:35:22;14.57;;;13.60;;
5718;SDS011;2884;47.734;9.244;2022-10-22T01:37:52;11.17;;;10.47;;
5718;SDS011;2884;47.734;9.244;2022-10-22T01:40:19;10.60;;;10.00;;
5718;SDS011;2884;47.734;9.244;2022-10-22T01:45:21;9.17;;;8.57;;
5718;SDS011;2884;47.734;9.244;2022-10-22T01:50:51;9.00;;;8.60;;
5718;SDS011;2884;47.734;9.244;2022-10-22T01:53:23;8.47;;;8.07;;
5718;SDS011;2884;47.734;9.244;2022-10-22T01:56:03;7.93;;;7.63;;
5718;SDS011;2884;47.734;9.244;2022-10-22T01:58:40;8.70;;;8.30;;
5718;SDS011;2884;47.734;9.244;2022-10-22T02:06:26;9.70;;;9.20;;
5718;SDS011;2884;47.734;9.244;2022-10-22T02:08:51;9.40;;;9.00;;
5718;SDS011;2884;47.734;9.244;2022-10-22T02:11:18;10.43;;;9.40;;
5718;SDS011;2884;47.734;9.244;2022-10-22T02:13:46;10.77;;;10.27;;
5718;SDS011;2884;47.734;9.244;2022-10-22T02:16:18;8.23;;;7.93;;
5718;SDS011;2884;47.734;9.244;2022-10-22T02:18:53;8.13;;;7.73;;
5718;SDS011;2884;47.734;9.244;2022-10-22T02:21:19;7.63;;;7.33;;
5718;SDS011;2884;47.734;9.244;2022-10-22T02:23:45;9.43;;;8.93;;
5718;SDS011;2884;47.734;9.244;2022-10-22T02:26:15;7.57;;;7.17;;
5718;SDS011;2884;47.734;9.244;2022-10-22T02:31:52;10.07;;;9.37;;
5718;SDS011;2884;47.734;9.244;2022-10-22T02:34:20;9.60;;;8.80;;
5718;SDS011;2884;47.734;9.244;2022-10-22T02:36:48;8.73;;;8.23;;
5718;SDS011;2884;47.734;9.244;2022-10-22T02:39:15;8.30;;;7.90;;
5718;SDS011;2884;47.734;9.244;2022-10-22T02:41:41;8.57;;;8.10;;
5718;SDS011;2884;47.734;9.244;2022-10-22T02:44:08;9.13;;;8.73;;
5718;SDS011;2884;47.734;9.244;2022-10-22T02:46:35;10.47;;;9.87;;
5718;SDS011;2884;47.734;9.244;2022-10-22T02:49:01;10.63;;;10.00;;
5718;SDS011;2884;47.734;9.244;2022-10-22T02:51:27;10.87;;;10.30;;
5718;SDS011;2884;47.734;9.244;2022-10-22T02:53:53;11.70;;;11.03;;
5718;SDS011;2884;47.734;9.244;2022-10-22T02:56:18;10.73;;;10.30;;
5718;SDS011;2884;47.734;9.244;2022-10-22T02:58:44;10.30;;;9.90;;
5718;SDS011;2884;47.734;9.244;2022-10-22T03:01:09;9.73;;;9.33;;
5718;SDS011;2884;47.734;9.244;2022-10-22T03:03:35;9.57;;;9.20;;
5718;SDS011;2884;47.734;9.244;2022-10-22T03:06:00;9.23;;;8.90;;
5718;SDS011;2884;47.734;9.244;2022-10-22T03:08:26;9.40;;;9.10;;
5718;SDS011;2884;47.734;9.244;2022-10-22T03:10:51;9.27;;;8.97;;
5718;SDS011;2884;47.734;9.244;2022-10-22T03:13:17;9.60;;;9.20;;
5718;SDS011;2884;47.734;9.244;2022-10-22T03:15:43;9.37;;;9.07;;
5718;SDS011;2884;47.734;9.244;2022-10-22T03:18:08;9.17;;;8.77;;
5718;SDS011;2884;47.734;9.244;2022-10-22T03:20:33;9.87;;;9.47;;
5718;SDS011;2884;47.734;9.244;2022-10-22T03:22:59;10.20;;;9.70;;
5718;SDS011;2884;47.734;9.244;2022-10-22T03:25:25;10.00;;;9.50;;
5718;SDS011;2884;47.734;9.244;2022-10-22T03:27:51;10.13;;;9.73;;
5718;SDS011;2884;47.734;9.244;2022-10-22T03:30:18;10.30;;;9.90;;
5718;SDS011;2884;47.734;9.244;2022-10-22T03:32:44;10.07;;;9.67;;
5718;SDS011;2884;47.734;9.244;2022-10-22T03:35:09;10.57;;;10.10;;
5718;SDS011;2884;47.734;9.244;2022-10-22T03:37:35;11.07;;;10.57;;
5718;SDS011;2884;47.734;9.244;2022-10-22T03:40:02;10.47;;;10.07;;
5718;SDS011;2884;47.734;9.244;2022-10-22T03:42:28;10.47;;;10.07;;
5718;SDS011;2884;47.734;9.244;2022-10-22T03:44:54;9.93;;;9.63;;
5718;SDS011;2884;47.734;9.244;2022-10-22T03:47:20;9.30;;;8.90;;
5718;SDS011;2884;47.734;9.244;2022-10-22T03:49:48;10.13;;;9.73;;
5718;SDS011;2884;47.734;9.244;2022-10-22T03:52:15;10.33;;;9.83;;
5718;SDS011;2884;47.734;9.244;2022-10-22T03:54:40;9.07;;;8.77;;
5718;SDS011;2884;47.734;9.244;2022-10-22T03:57:06;9.70;;;9.30;;
5718;SDS011;2884;47.734;9.244;2022-10-22T03:59:50;8.90;;;8.60;;
5718;SDS011;2884;47.734;9.244;2022-10-22T04:02:15;9.00;;;8.43;;
5718;SDS011;2884;47.734;9.244;2022-10-22T04:04:41;9.90;;;9.50;;
5718;SDS011;2884;47.734;9.244;2022-10-22T04:07:07;10.00;;;9.27;;
5718;SDS011;2884;47.734;9.244;2022-10-22T04:09:32;9.53;;;9.23;;
5718;SDS011;2884;47.734;9.244;2022-10-22T04:11:59;10.70;;;10.30;;
5718;SDS011;2884;47.734;9.244;2022-10-22T04:14:24;11.27;;;10.87;;
5718;SDS011;2884;47.734;9.244;2022-10-22T04:16:50;9.40;;;9.03;;
5718;SDS011;2884;47.734;9.244;2022-10-22T04:19:16;7.60;;;7.40;;
5718;SDS011;2884;47.734;9.244;2022-10-22T04:21:42;7.83;;;7.53;;
5718;SDS011;2884;47.734;9.244;2022-10-22T04:24:08;7.57;;;7.37;;
5718;SDS011;2884;47.734;9.244;2022-10-22T04:26:33;8.50;;;8.10;;
5718;SDS011;2884;47.734;9.244;2022-10-22T04:28:59;9.07;;;8.57;;
5718;SDS011;2884;47.734;9.244;2022-10-22T04:31:25;8.00;;;7.70;;
5718;SDS011;2884;47.734;9.244;2022-10-22T04:33:52;8.07;;;7.87;;
5718;SDS011;2884;47.734;9.244;2022-10-22T04:36:18;7.50;;;7.27;;
5718;SDS011;2884;47.734;9.244;2022-10-22T04:38:45;8.33;;;8.00;;
5718;SDS011;2884;47.734;9.244;2022-10-22T04:41:15;8.40;;;7.97;;
5718;SDS011;2884;47.734;9.244;2022-10-22T04:43:44;8.20;;;7.90;;
5718;SDS011;2884;47.734;9.244;2022-10-22T04:46:10;8.40;;;8.10;;
5718;SDS011;2884;47.734;9.244;2022-10-22T04:48:37;7.97;;;7.67;;
5718;SDS011;2884;47.734;9.244;2022-10-22T04:51:04;7.27;;;7.00;;
5718;SDS011;2884;47.734;9.244;2022-10-22T04:53:31;7.07;;;6.87;;
5718;SDS011;2884;47.734;9.244;2022-10-22T04:56:09;7.30;;;6.90;;
5718;SDS011;2884;47.734;9.244;2022-10-22T04:58:44;7.73;;;7.43;;
5718;SDS011;2884;47.734;9.244;2022-10-22T05:01:14;9.00;;;8.40;;
5718;SDS011;2884;47.734;9.244;2022-10-22T05:03:44;7.03;;;6.83;;
5718;SDS011;2884;47.734;9.244;2022-10-22T05:06:10;7.73;;;7.53;;
5718;SDS011;2884;47.734;9.244;2022-10-22T05:08:36;7.87;;;7.57;;
5718;SDS011;2884;47.734;9.244;2022-10-22T05:11:17;7.57;;;7.33;;
5718;SDS011;2884;47.734;9.244;2022-10-22T05:13:45;8.77;;;8.47;;
5718;SDS011;2884;47.734;9.244;2022-10-22T05:16:11;7.57;;;7.37;;
5718;SDS011;2884;47.734;9.244;2022-10-22T05:18:37;7.37;;;6.87;;
5718;SDS011;2884;47.734;9.244;2022-10-22T05:21:06;7.13;;;6.83;;
5718;SDS011;2884;47.734;9.244;2022-10-22T05:23:33;6.83;;;6.63;;
5718;SDS011;2884;47.734;9.244;2022-10-22T05:26:01;6.67;;;6.43;;
5718;SDS011;2884;47.734;9.244;2022-10-22T05:28:28;5.50;;;5.40;;
5718;SDS011;2884;47.734;9.244;2022-10-22T05:30:54;5.40;;;5.10;;
5718;SDS011;2884;47.734;9.244;2022-10-22T05:33:21;5.30;;;5.20;;
5718;SDS011;2884;47.734;9.244;2022-10-22T05:35:50;6.33;;;6.13;;
5718;SDS011;2884;47.734;9.244;2022-10-22T05:38:16;6.17;;;5.97;;
5718;SDS011;2884;47.734;9.244;2022-10-22T05:40:42;6.47;;;6.07;;
5718;SDS011;2884;47.734;9.244;2022-10-22T05:43:08;6.13;;;5.83;;
5718;SDS011;2884;47.734;9.244;2022-10-22T05:45:37;6.23;;;6.03;;
5718;SDS011;2884;47.734;9.244;2022-10-22T05:48:06;6.50;;;6.03;;
5718;SDS011;2884;47.734;9.244;2022-10-22T05:50:36;6.90;;;6.70;;
5718;SDS011;2884;47.734;9.244;2022-10-22T05:53:02;6.67;;;6.23;;
5718;SDS011;2884;47.734;9.244;2022-10-22T05:55:28;6.77;;;6.47;;
5718;SDS011;2884;47.734;9.244;2022-10-22T05:57:53;7.07;;;6.77;;
5718;SDS011;2884;47.734;9.244;2022-10-22T06:00:19;8.17;;;7.43;;
5718;SDS011;2884;47.734;9.244;2022-10-22T06:02:48;26.27;;;7.67;;
5718;SDS011;2884;47.734;9.244;2022-10-22T06:05:14;6.60;;;6.40;;
5718;SDS011;2884;47.734;9.244;2022-10-22T06:07:39;6.43;;;6.03;;
5718;SDS011;2884;47.734;9.244;2022-10-22T06:10:05;6.13;;;5.93;;
5718;SDS011;2884;47.734;9.244;2022-10-22T06:12:42;6.50;;;6.20;;
5718;SDS011;2884;47.734;9.244;2022-10-22T06:15:11;5.57;;;5.27;;
5718;SDS011;2884;47.734;9.244;2022-10-22T06:17:38;5.90;;;5.43;;
5718;SDS011;2884;47.734;9.244;2022-10-22T06:20:04;5.33;;;4.97;;
5718;SDS011;2884;47.734;9.244;2022-10-22T06:22:30;7.17;;;5.20;;
5718;SDS011;2884;47.734;9.244;2022-10-22T06:24:55;5.90;;;5.00;;
5718;SDS011;2884;47.734;9.244;2022-10-22T06:27:21;5.80;;;5.50;;
5718;SDS011;2884;47.734;9.244;2022-10-22T06:29:47;4.87;;;4.57;;
5718;SDS011;2884;47.734;9.244;2022-10-22T06:32:12;5.70;;;5.37;;
5718;SDS011;2884;47.734;9.244;2022-10-22T06:34:38;5.20;;;5.03;;
5718;SDS011;2884;47.734;9.244;2022-10-22T06:37:04;4.93;;;4.73;;
5718;SDS011;2884;47.734;9.244;2022-10-22T06:39:29;4.97;;;4.67;;
5718;SDS011;2884;47.734;9.244;2022-10-22T06:41:55;5.10;;;4.90;;
5718;SDS011;2884;47.734;9.244;2022-10-22T06:44:20;4.60;;;4.50;;
5718;SDS011;2884;47.734;9.244;2022-10-22T06:46:49;4.87;;;4.67;;
5718;SDS011;2884;47.734;9.244;2022-10-22T06:49:16;5.50;;;5.20;;
5718;SDS011;2884;47.734;9.244;2022-10-22T06:51:42;4.87;;;4.70;;
5718;SDS011;2884;47.734;9.244;2022-10-22T06:54:08;4.10;;;4.00;;
5718;SDS011;2884;47.734;9.244;2022-10-22T06:56:34;4.73;;;4.53;;
5718;SDS011;2884;47.734;9.244;2022-10-22T06:59:00;5.10;;;4.80;;
5718;SDS011;2884;47.734;9.244;2022-10-22T07:01:27;5.20;;;5.00;;
5718;SDS011;2884;47.734;9.244;2022-10-22T07:03:54;5.00;;;4.80;;
5718;SDS011;2884;47.734;9.244;2022-10-22T07:06:20;4.47;;;4.30;;
5718;SDS011;2884;47.734;9.244;2022-10-22T07:08:46;5.37;;;5.17;;
5718;SDS011;2884;47.734;9.244;2022-10-22T07:11:13;4.60;;;4.50;;
5718;SDS011;2884;47.734;9.244;2022-10-22T07:13:41;3.63;;;3.60;;
5718;SDS011;2884;47.734;9.244;2022-10-22T07:16:07;4.63;;;4.53;;
5718;SDS011;2884;47.734;9.244;2022-10-22T07:18:34;4.43;;;4.33;;
5718;SDS011;2884;47.734;9.244;2022-10-22T07:21:01;7.87;;;4.10;;
5718;SDS011;2884;47.734;9.244;2022-10-22T07:23:27;4.83;;;4.63;;
5718;SDS011;2884;47.734;9.244;2022-10-22T07:25:54;4.90;;;4.60;;
5718;SDS011;2884;47.734;9.244;2022-10-22T07:28:20;4.20;;;4.10;;
5718;SDS011;2884;47.734;9.244;2022-10-22T07:30:45;5.10;;;4.80;;
5718;SDS011;2884;47.734;9.244;2022-10-22T07:33:11;5.70;;;5.20;;
5718;SDS011;2884;47.734;9.244;2022-10-22T07:35:37;5.40;;;4.87;;
5718;SDS011;2884;47.734;9.244;2022-10-22T07:38:04;4.00;;;3.80;;
5718;SDS011;2884;47.734;9.244;2022-10-22T07:40:30;5.17;;;4.97;;
5718;SDS011;2884;47.734;9.244;2022-10-22T07:42:56;4.90;;;4.57;;
5718;SDS011;2884;47.734;9.244;2022-10-22T07:45:21;4.70;;;4.30;;
5718;SDS011;2884;47.734;9.244;2022-10-22T07:47:47;4.93;;;4.53;;
5718;SDS011;2884;47.734;9.244;2022-10-22T07:50:13;4.60;;;4.30;;
5718;SDS011;2884;47.734;9.244;2022-10-22T07:52:39;4.97;;;4.67;;
5718;SDS011;2884;47.734;9.244;2022-10-22T07:55:04;3.70;;;3.60;;
5718;SDS011;2884;47.734;9.244;2022-10-22T07:57:30;3.67;;;3.57;;
5718;SDS011;2884;47.734;9.244;2022-10-22T07:59:56;6.13;;;3.57;;
5718;SDS011;2884;47.734;9.244;2022-10-22T08:02:23;4.30;;;3.90;;
5718;SDS011;2884;47.734;9.244;2022-10-22T08:04:49;3.70;;;3.60;;
5718;SDS011;2884;47.734;9.244;2022-10-22T08:07:14;3.60;;;3.50;;
5718;SDS011;2884;47.734;9.244;2022-10-22T08:09:40;3.40;;;3.30;;
5718;SDS011;2884;47.734;9.244;2022-10-22T08:12:05;3.37;;;3.27;;
5718;SDS011;2884;47.734;9.244;2022-10-22T08:14:31;3.90;;;3.70;;
5718;SDS011;2884;47.734;9.244;2022-10-22T08:16:57;5.63;;;5.30;;
5718;SDS011;2884;47.734;9.244;2022-10-22T08:19:22;5.77;;;5.37;;
5718;SDS011;2884;47.734;9.244;2022-10-22T08:21:48;5.97;;;5.30;;
5718;SDS011;2884;47.734;9.244;2022-10-22T08:24:14;6.10;;;5.90;;
5718;SDS011;2884;47.734;9.244;2022-10-22T08:26:40;5.10;;;4.90;;
5718;SDS011;2884;47.734;9.244;2022-10-22T08:29:06;4.80;;;4.33;;
5718;SDS011;2884;47.734;9.244;2022-10-22T08:31:32;3.80;;;3.70;;
5718;SDS011;2884;47.734;9.244;2022-10-22T08:33:58;3.80;;;3.70;;
5718;SDS011;2884;47.734;9.244;2022-10-22T08:36:23;3.20;;;2.80;;
5718;SDS011;2884;47.734;9.244;2022-10-22T08:38:49;2.83;;;2.73;;
5718;SDS011;2884;47.734;9.244;2022-10-22T08:41:16;3.93;;;2.90;;
5718;SDS011;2884;47.734;9.244;2022-10-22T08:49:18;2.20;;;2.10;;
5718;SDS011;2884;47.734;9.244;2022-10-22T08:51:46;1.97;;;1.87;;
5718;SDS011;2884;47.734;9.244;2022-10-22T08:59:42;1.80;;;1.70;;
5718;SDS011;2884;47.734;9.244;2022-10-22T09:07:59;5.97;;;1.63;;
5718;SDS011;2884;47.734;9.244;2022-10-22T09:10:27;5.40;;;1.60;;
5718;SDS011;2884;47.734;9.244;2022-10-22T09:12:56;1.40;;;1.30;;
5718;SDS011;2884;47.734;9.244;2022-10-22T09:15:21;2.20;;;1.60;;
5718;SDS011;2884;47.734;9.244;2022-10-22T09:17:54;7.50;;;1.53;;
5718;SDS011;2884;47.734;9.244;2022-10-22T09:20:32;2.20;;;1.00;;
5718;SDS011;2884;47.734;9.244;2022-10-22T09:25:46;2.63;;;1.43;;
5718;SDS011;2884;47.734;9.244;2022-10-22T09:28:16;1.30;;;1.20;;
5718;SDS011;2884;47.734;9.244;2022-10-22T09:30:42;4.23;;;0.90;;
5718;SDS011;2884;47.734;9.244;2022-10-22T09:33:24;4.20;;;1.23;;
5718;SDS011;2884;47.734;9.244;2022-10-22T09:35:52;11.73;;;1.50;;
5718;SDS011;2884;47.734;9.244;2022-10-22T09:38:23;1.97;;;1.23;;
5718;SDS011;2884;47.734;9.244;2022-10-22T09:40:52;1.03;;;1.03;;
5718;SDS011;2884;47.734;9.244;2022-10-22T09:43:19;0.93;;;0.80;;
5718;SDS011;2884;47.734;9.244;2022-10-22T09:45:45;0.77;;;0.70;;
5718;SDS011;2884;47.734;9.244;2022-10-22T09:51:01;0.90;;;0.70;;
5718;SDS011;2884;47.734;9.244;2022-10-22T09:53:28;2.50;;;0.60;;
5718;SDS011;2884;47.734;9.244;2022-10-22T09:55:55;0.70;;;0.60;;
5718;SDS011;2884;47.734;9.244;2022-10-22T09:58:25;1.17;;;0.90;;
5718;SDS011;2884;47.734;9.244;2022-10-22T10:00:53;3.30;;;0.93;;
5718;SDS011;2884;47.734;9.244;2022-10-22T10:03:24;1.57;;;1.00;;
5718;SDS011;2884;47.734;9.244;2022-10-22T10:05:56;1.10;;;0.90;;
5718;SDS011;2884;47.734;9.244;2022-10-22T10:08:23;2.33;;;0.73;;
5718;SDS011;2884;47.734;9.244;2022-10-22T10:10:50;0.70;;;0.70;;
5718;SDS011;2884;47.734;9.244;2022-10-22T10:24:50;2.13;;;0.70;;
5718;SDS011;2884;47.734;9.244;2022-10-22T10:27:23;2.40;;;0.80;;
5718;SDS011;2884;47.734;9.244;2022-10-22T10:35:24;2.20;;;0.63;;
5718;SDS011;2884;47.734;9.244;2022-10-22T10:38:00;1.60;;;1.03;;
5718;SDS011;2884;47.734;9.244;2022-10-22T10:40:43;2.27;;;0.70;;
5718;SDS011;2884;47.734;9.244;2022-10-22T10:46:40;4.10;;;0.70;;
5718;SDS011;2884;47.734;9.244;2022-10-22T10:49:08;0.70;;;0.70;;
5718;SDS011;2884;47.734;9.244;2022-10-22T10:51:41;2.37;;;0.80;;
5718;SDS011;2884;47.734;9.244;2022-10-22T10:56:46;1.47;;;0.80;;
5718;SDS011;2884;47.734;9.244;2022-10-22T11:02:13;5.70;;;1.00;;
5718;SDS011;2884;47.734;9.244;2022-10-22T11:15:49;2.20;;;0.80;;
5718;SDS011;2884;47.734;9.244;2022-10-22T11:18:21;4.33;;;0.80;;
5718;SDS011;2884;47.734;9.244;2022-10-22T11:23:41;3.57;;;1.03;;
5718;SDS011;2884;47.734;9.244;2022-10-22T11:26:09;0.80;;;0.80;;
5718;SDS011;2884;47.734;9.244;2022-10-22T11:28:51;0.70;;;0.63;;
5718;SDS011;2884;47.734;9.244;2022-10-22T11:31:18;0.70;;;0.70;;
5718;SDS011;2884;47.734;9.244;2022-10-22T11:36:36;1.13;;;0.90;;
5718;SDS011;2884;47.734;9.244;2022-10-22T11:39:02;3.33;;;1.00;;
5718;SDS011;2884;47.734;9.244;2022-10-22T11:41:28;2.90;;;0.73;;
5718;SDS011;2884;47.734;9.244;2022-10-22T11:51:37;1.03;;;0.80;;
5718;SDS011;2884;47.734;9.244;2022-10-22T11:54:28;1.47;;;0.80;;
5718;SDS011;2884;47.734;9.244;2022-10-22T11:59:40;2.40;;;0.80;;
5718;SDS011;2884;47.734;9.244;2022-10-22T12:02:22;3.80;;;0.87;;
5718;SDS011;2884;47.734;9.244;2022-10-22T12:07:52;1.47;;;0.70;;
5718;SDS011;2884;47.734;9.244;2022-10-22T12:13:20;2.50;;;1.10;;
5718;SDS011;2884;47.734;9.244;2022-10-22T12:15:53;2.70;;;0.80;;
5718;SDS011;2884;47.734;9.244;2022-10-22T12:18:28;2.40;;;0.80;;
5718;SDS011;2884;47.734;9.244;2022-10-22T12:20:58;1.30;;;0.80;;
5718;SDS011;2884;47.734;9.244;2022-10-22T12:23:28;2.70;;;0.80;;
5718;SDS011;2884;47.734;9.244;2022-10-22T12:25:56;6.30;;;1.30;;
5718;SDS011;2884;47.734;9.244;2022-10-22T12:28:22;5.30;;;0.70;;
5718;SDS011;2884;47.734;9.244;2022-10-22T12:30:47;2.00;;;0.80;;
5718;SDS011;2884;47.734;9.244;2022-10-22T12:33:20;1.80;;;0.80;;
5718;SDS011;2884;47.734;9.244;2022-10-22T12:35:47;0.73;;;0.73;;
5718;SDS011;2884;47.734;9.244;2022-10-22T12:38:16;2.33;;;0.87;;
5718;SDS011;2884;47.734;9.244;2022-10-22T12:40:46;1.33;;;0.80;;
5718;SDS011;2884;47.734;9.244;2022-10-22T12:43:14;5.70;;;1.00;;
5718;SDS011;2884;47.734;9.244;2022-10-22T12:45:42;0.70;;;0.70;;
5718;SDS011;2884;47.734;9.244;2022-10-22T12:48:18;1.13;;;0.70;;
5718;SDS011;2884;47.734;9.244;2022-10-22T12:50:50;2.17;;;1.30;;
5718;SDS011;2884;47.734;9.244;2022-10-22T12:53:27;2.93;;;1.00;;
5718;SDS011;2884;47.734;9.244;2022-10-22T12:55:55;1.17;;;0.90;;
5718;SDS011;2884;47.734;9.244;2022-10-22T12:58:25;2.60;;;1.00;;
5718;SDS011;2884;47.734;9.244;2022-10-22T13:00:55;6.50;;;1.03;;
5718;SDS011;2884;47.734;9.244;2022-10-22T13:03:25;4.37;;;1.00;;
5718;SDS011;2884;47.734;9.244;2022-10-22T13:05:52;1.43;;;1.10;;
5718;SDS011;2884;47.734;9.244;2022-10-22T13:08:19;2.80;;;0.87;;
5718;SDS011;2884;47.734;9.244;2022-10-22T13:10:52;6.73;;;1.00;;
5718;SDS011;2884;47.734;9.244;2022-10-22T13:14:01;1.33;;;1.00;;
5718;SDS011;2884;47.734;9.244;2022-10-22T13:18:43;5.40;;;1.23;;
5718;SDS011;2884;47.734;9.244;2022-10-22T13:21:20;2.40;;;1.10;;
5718;SDS011;2884;47.734;9.244;2022-10-22T13:24:19;2.20;;;1.00;;
5718;SDS011;2884;47.734;9.244;2022-10-22T13:26:50;1.53;;;1.03;;
5718;SDS011;2884;47.734;9.244;2022-10-22T13:29:17;1.47;;;0.90;;
5718;SDS011;2884;47.734;9.244;2022-10-22T13:31:45;2.97;;;1.10;;
5718;SDS011;2884;47.734;9.244;2022-10-22T13:34:13;1.37;;;1.00;;
5718;SDS011;2884;47.734;9.244;2022-10-22T13:36:41;5.77;;;0.90;;
5718;SDS011;2884;47.734;9.244;2022-10-22T13:39:11;3.00;;;0.87;;
5718;SDS011;2884;47.734;9.244;2022-10-22T13:41:39;2.40;;;0.70;;
5718;SDS011;2884;47.734;9.244;2022-10-22T13:44:04;3.80;;;1.00;;
5718;SDS011;2884;47.734;9.244;2022-10-22T13:46:30;0.90;;;0.90;;
5718;SDS011;2884;47.734;9.244;2022-10-22T13:48:55;1.60;;;1.30;;
5718;SDS011;2884;47.734;9.244;2022-10-22T13:51:32;3.00;;;1.10;;
5718;SDS011;2884;47.734;9.244;2022-10-22T13:53:59;0.90;;;0.80;;
5718;SDS011;2884;47.734;9.244;2022-10-22T13:56:25;3.83;;;1.00;;
5718;SDS011;2884;47.734;9.244;2022-10-22T13:58:50;3.43;;;0.80;;
5718;SDS011;2884;47.734;9.244;2022-10-22T14:01:20;0.97;;;0.80;;
5718;SDS011;2884;47.734;9.244;2022-10-22T14:03:54;5.37;;;1.13;;
5718;SDS011;2884;47.734;9.244;2022-10-22T14:06:22;2.30;;;1.20;;
5718;SDS011;2884;47.734;9.244;2022-10-22T14:08:50;4.97;;;1.10;;
5718;SDS011;2884;47.734;9.244;2022-10-22T14:11:19;1.00;;;1.00;;
5718;SDS011;2884;47.734;9.244;2022-10-22T14:13:44;1.33;;;0.83;;
5718;SDS011;2884;47.734;9.244;2022-10-22T14:16:14;2.03;;;0.90;;
5718;SDS011;2884;47.734;9.244;2022-10-22T14:18:42;3.80;;;1.00;;
5718;SDS011;2884;47.734;9.244;2022-10-22T14:21:09;4.43;;;1.30;;
5718;SDS011;2884;47.734;9.244;2022-10-22T14:23:35;3.53;;;1.00;;
5718;SDS011;2884;47.734;9.244;2022-10-22T14:26:01;1.27;;;0.87;;
5718;SDS011;2884;47.734;9.244;2022-10-22T14:28:27;3.93;;;0.90;;
5718;SDS011;2884;47.734;9.244;2022-10-22T14:30:53;0.90;;;0.90;;
5718;SDS011;2884;47.734;9.244;2022-10-22T14:33:20;6.27;;;1.03;;
5718;SDS011;2884;47.734;9.244;2022-10-22T14:35:48;5.40;;;0.87;;
5718;SDS011;2884;47.734;9.244;2022-10-22T14:38:14;1.57;;;0.80;;
5718;SDS011;2884;47.734;9.244;2022-10-22T14:40:39;2.00;;;1.13;;
5718;SDS011;2884;47.734;9.244;2022-10-22T14:43:11;1.33;;;1.00;;
5718;SDS011;2884;47.734;9.244;2022-10-22T14:45:37;6.00;;;0.93;;
5718;SDS011;2884;47.734;9.244;2022-10-22T14:48:03;0.97;;;0.97;;
5718;SDS011;2884;47.734;9.244;2022-10-22T14:50:29;4.13;;;0.80;;
5718;SDS011;2884;47.734;9.244;2022-10-22T14:52:54;2.27;;;0.90;;
5718;SDS011;2884;47.734;9.244;2022-10-22T14:55:21;3.50;;;0.90;;
5718;SDS011;2884;47.734;9.244;2022-10-22T14:57:47;2.73;;;0.90;;
5718;SDS011;2884;47.734;9.244;2022-10-22T15:00:13;5.93;;;0.93;;
5718;SDS011;2884;47.734;9.244;2022-10-22T15:02:40;4.10;;;0.80;;
5718;SDS011;2884;47.734;9.244;2022-10-22T15:05:06;4.20;;;1.17;;
5718;SDS011;2884;47.734;9.244;2022-10-22T15:07:31;2.67;;;1.00;;
5718;SDS011;2884;47.734;9.244;2022-10-22T15:09:57;0.90;;;0.80;;
5718;SDS011;2884;47.734;9.244;2022-10-22T15:12:22;1.17;;;1.07;;
5718;SDS011;2884;47.734;9.244;2022-10-22T15:14:48;3.37;;;0.80;;
5718;SDS011;2884;47.734;9.244;2022-10-22T15:17:14;2.23;;;0.80;;
5718;SDS011;2884;47.734;9.244;2022-10-22T15:19:41;2.57;;;1.20;;
5718;SDS011;2884;47.734;9.244;2022-10-22T15:22:10;1.20;;;1.10;;
5718;SDS011;2884;47.734;9.244;2022-10-22T15:24:36;0.80;;;0.80;;
5718;SDS011;2884;47.734;9.244;2022-10-22T15:27:02;4.90;;;1.10;;
5718;SDS011;2884;47.734;9.244;2022-10-22T15:29:28;3.17;;;1.10;;
5718;SDS011;2884;47.734;9.244;2022-10-22T15:31:55;3.17;;;1.03;;
5718;SDS011;2884;47.734;9.244;2022-10-22T15:34:33;1.47;;;1.00;;
5718;SDS011;2884;47.734;9.244;2022-10-22T15:37:00;1.40;;;0.77;;
5718;SDS011;2884;47.734;9.244;2022-10-22T15:39:27;6.13;;;1.27;;
5718;SDS011;2884;47.734;9.244;2022-10-22T15:41:53;1.50;;;1.00;;
5718;SDS011;2884;47.734;9.244;2022-10-22T15:44:19;1.80;;;0.80;;
5718;SDS011;2884;47.734;9.244;2022-10-22T15:46:47;2.00;;;1.00;;
5718;SDS011;2884;47.734;9.244;2022-10-22T15:49:14;3.13;;;1.00;;
5718;SDS011;2884;47.734;9.244;2022-10-22T15:51:40;1.97;;;0.77;;
5718;SDS011;2884;47.734;9.244;2022-10-22T15:54:06;4.63;;;1.00;;
5718;SDS011;2884;47.734;9.244;2022-10-22T15:56:39;0.97;;;0.97;;
5718;SDS011;2884;47.734;9.244;2022-10-22T15:59:04;3.33;;;0.70;;
5718;SDS011;2884;47.734;9.244;2022-10-22T16:01:31;2.40;;;0.77;;
5718;SDS011;2884;47.734;9.244;2022-10-22T16:03:58;5.63;;;1.10;;
5718;SDS011;2884;47.734;9.244;2022-10-22T16:06:31;1.03;;;0.80;;
5718;SDS011;2884;47.734;9.244;2022-10-22T16:08:59;1.17;;;0.80;;
5718;SDS011;2884;47.734;9.244;2022-10-22T16:11:25;1.37;;;0.90;;
5718;SDS011;2884;47.734;9.244;2022-10-22T16:13:52;0.80;;;0.73;;
5718;SDS011;2884;47.734;9.244;2022-10-22T16:16:21;3.83;;;1.07;;
5718;SDS011;2884;47.734;9.244;2022-10-22T16:18:51;5.23;;;1.90;;
5718;SDS011;2884;47.734;9.244;2022-10-22T16:21:17;6.17;;;1.57;;
5718;SDS011;2884;47.734;9.244;2022-10-22T16:23:43;3.30;;;1.50;;
5718;SDS011;2884;47.734;9.244;2022-10-22T16:26:09;2.77;;;1.20;;
5718;SDS011;2884;47.734;9.244;2022-10-22T16:28:34;1.20;;;1.10;;
5718;SDS011;2884;47.734;9.244;2022-10-22T16:31:01;2.30;;;1.10;;
5718;SDS011;2884;47.734;9.244;2022-10-22T16:33:27;1.10;;;1.10;;
5718;SDS011;2884;47.734;9.244;2022-10-22T16:35:52;1.20;;;1.10;;
5718;SDS011;2884;47.734;9.244;2022-10-22T16:38:18;1.40;;;1.20;;
5718;SDS011;2884;47.734;9.244;2022-10-22T16:40:44;13.00;;;2.87;;
5718;SDS011;2884;47.734;9.244;2022-10-22T16:43:09;15.83;;;3.40;;
5718;SDS011;2884;47.734;9.244;2022-10-22T16:45:35;15.37;;;4.50;;
5718;SDS011;2884;47.734;9.244;2022-10-22T16:48:00;19.07;;;5.37;;
5718;SDS011;2884;47.734;9.244;2022-10-22T16:50:25;14.70;;;5.93;;
5718;SDS011;2884;47.734;9.244;2022-10-22T16:52:51;12.00;;;6.03;;
5718;SDS011;2884;47.734;9.244;2022-10-22T16:55:17;19.90;;;6.13;;
5718;SDS011;2884;47.734;9.244;2022-10-22T16:57:42;4.30;;;2.30;;
5718;SDS011;2884;47.734;9.244;2022-10-22T17:00:08;5.47;;;2.00;;
5718;SDS011;2884;47.734;9.244;2022-10-22T17:02:34;1.80;;;1.70;;